<?xml version="1.0" encoding="UTF-8" standalone="no" ?>
<gpx xmlns="http://www.topografix.com/GPX/1/1" xmlns:xsi="http://www.w3.org/2001/XMLSchema-instance" xsi:schemaLocation="http://www.topografix.com/GPX/1/1 http://www.topografix.com/GPX/1/1/gpx.xsd" version="1.1" creator="VisuGPX - https://www.visugpx.com">
  <metadata>
    <name>FoudaBlanc</name>
    <desc><![CDATA[Fouda Blanc depuis les Varvat par la grotte à l'échelle et le pas de l'échelle]]></desc>
  </metadata>
  <trk>
    <name><![CDATA[2019-06-01 07:23]]></name>
    <desc><![CDATA[<p>Heure de départ: 07:23 1 juin 2019<br/>Heure d'arrivée: 13:33 1 juin 2019<br/>Distance: 10,2 km (06:09)<br/>Temps déplacement: 04:04<br/>Vitesse moyenne: 1,65 km/h<br/>Vitesse moyenne mouv.: 2,5 km/h<br/>Vitesse Max.: 7,85 km/h<br/>Altitude minimale: 1015 m<br/>Altitude maximale: 1866 m<br/>Vitesse de montée: 317,8 m/h<br/>Vitesse de descente: -278,9 m/h<br/>Gain d'altitude: 924 m<br/>Perte d'altitude: -895 m<br/>Temps de montée: 02:54<br/>Temps de descente: 03:12<br/></p><hr align="center" width="480" style="height: 2px; width: 517px"/>]]></desc>
    <trkseg>
      <trkpt lat="45.41254" lon="5.88652">
        <ele>1027.42</ele>
        <time>2019-06-01T05:23:53.761Z</time>
      </trkpt>
      <trkpt lat="45.41237" lon="5.88641">
        <ele>1015.28</ele>
        <time>2019-06-01T05:24:01.000Z</time>
      </trkpt>
      <trkpt lat="45.41252" lon="5.88656">
        <ele>1050.76</ele>
        <time>2019-06-01T05:24:12.000Z</time>
      </trkpt>
      <trkpt lat="45.41235" lon="5.8867">
        <ele>1048.98</ele>
        <time>2019-06-01T05:24:48.000Z</time>
      </trkpt>
      <trkpt lat="45.41222" lon="5.88691">
        <ele>1050.15</ele>
        <time>2019-06-01T05:25:06.000Z</time>
      </trkpt>
      <trkpt lat="45.41206" lon="5.88702">
        <ele>1045.7</ele>
        <time>2019-06-01T05:25:22.000Z</time>
      </trkpt>
      <trkpt lat="45.41191" lon="5.88719">
        <ele>1053.65</ele>
        <time>2019-06-01T05:25:45.000Z</time>
      </trkpt>
      <trkpt lat="45.41178" lon="5.88738">
        <ele>1061.73</ele>
        <time>2019-06-01T05:26:07.000Z</time>
      </trkpt>
      <trkpt lat="45.41172" lon="5.88762">
        <ele>1062.58</ele>
        <time>2019-06-01T05:26:31.000Z</time>
      </trkpt>
      <trkpt lat="45.4116" lon="5.88783">
        <ele>1069.81</ele>
        <time>2019-06-01T05:26:57.000Z</time>
      </trkpt>
      <trkpt lat="45.41146" lon="5.88799">
        <ele>1077.3</ele>
        <time>2019-06-01T05:27:34.000Z</time>
      </trkpt>
      <trkpt lat="45.41137" lon="5.88822">
        <ele>1081.5</ele>
        <time>2019-06-01T05:27:57.000Z</time>
      </trkpt>
      <trkpt lat="45.41119" lon="5.88828">
        <ele>1089</ele>
        <time>2019-06-01T05:28:21.000Z</time>
      </trkpt>
      <trkpt lat="45.41111" lon="5.88852">
        <ele>1093.59</ele>
        <time>2019-06-01T05:28:59.000Z</time>
      </trkpt>
      <trkpt lat="45.41096" lon="5.88865">
        <ele>1090.21</ele>
        <time>2019-06-01T05:29:21.000Z</time>
      </trkpt>
      <trkpt lat="45.41083" lon="5.88884">
        <ele>1096.8</ele>
        <time>2019-06-01T05:29:53.000Z</time>
      </trkpt>
      <trkpt lat="45.41068" lon="5.88899">
        <ele>1100.5</ele>
        <time>2019-06-01T05:30:18.000Z</time>
      </trkpt>
      <trkpt lat="45.41057" lon="5.88922">
        <ele>1103.74</ele>
        <time>2019-06-01T05:30:44.000Z</time>
      </trkpt>
      <trkpt lat="45.41045" lon="5.88941">
        <ele>1116.77</ele>
        <time>2019-06-01T05:31:10.000Z</time>
      </trkpt>
      <trkpt lat="45.41047" lon="5.88967">
        <ele>1115.87</ele>
        <time>2019-06-01T05:31:33.000Z</time>
      </trkpt>
      <trkpt lat="45.41058" lon="5.88987">
        <ele>1119.87</ele>
        <time>2019-06-01T05:32:12.000Z</time>
      </trkpt>
      <trkpt lat="45.41075" lon="5.88999">
        <ele>1142.15</ele>
        <time>2019-06-01T05:33:17.000Z</time>
      </trkpt>
      <trkpt lat="45.41087" lon="5.89019">
        <ele>1155.46</ele>
        <time>2019-06-01T05:34:30.000Z</time>
      </trkpt>
      <trkpt lat="45.41103" lon="5.89032">
        <ele>1153.48</ele>
        <time>2019-06-01T05:35:15.000Z</time>
      </trkpt>
      <trkpt lat="45.41121" lon="5.89036">
        <ele>1159.19</ele>
        <time>2019-06-01T05:35:29.000Z</time>
      </trkpt>
      <trkpt lat="45.41137" lon="5.89048">
        <ele>1170.63</ele>
        <time>2019-06-01T05:36:49.000Z</time>
      </trkpt>
      <trkpt lat="45.41153" lon="5.89063">
        <ele>1178.69</ele>
        <time>2019-06-01T05:37:24.000Z</time>
      </trkpt>
      <trkpt lat="45.41166" lon="5.89083">
        <ele>1186.62</ele>
        <time>2019-06-01T05:38:23.000Z</time>
      </trkpt>
      <trkpt lat="45.41179" lon="5.89101">
        <ele>1197.54</ele>
        <time>2019-06-01T05:39:03.000Z</time>
      </trkpt>
      <trkpt lat="45.41198" lon="5.89102">
        <ele>1195.8</ele>
        <time>2019-06-01T05:39:22.000Z</time>
      </trkpt>
      <trkpt lat="45.41216" lon="5.89102">
        <ele>1206.59</ele>
        <time>2019-06-01T05:40:08.000Z</time>
      </trkpt>
      <trkpt lat="45.41234" lon="5.89108">
        <ele>1218.06</ele>
        <time>2019-06-01T05:40:42.000Z</time>
      </trkpt>
      <trkpt lat="45.41251" lon="5.89118">
        <ele>1218.47</ele>
        <time>2019-06-01T05:41:28.000Z</time>
      </trkpt>
      <trkpt lat="45.41268" lon="5.89126">
        <ele>1234.68</ele>
        <time>2019-06-01T05:42:16.000Z</time>
      </trkpt>
      <trkpt lat="45.41286" lon="5.89134">
        <ele>1242.39</ele>
        <time>2019-06-01T05:43:11.000Z</time>
      </trkpt>
      <trkpt lat="45.41303" lon="5.89145">
        <ele>1248.48</ele>
        <time>2019-06-01T05:43:50.000Z</time>
      </trkpt>
      <trkpt lat="45.4132" lon="5.8915">
        <ele>1252.37</ele>
        <time>2019-06-01T05:44:22.000Z</time>
      </trkpt>
      <trkpt lat="45.41336" lon="5.89164">
        <ele>1263.15</ele>
        <time>2019-06-01T05:45:36.000Z</time>
      </trkpt>
      <trkpt lat="45.41354" lon="5.89169">
        <ele>1264.82</ele>
        <time>2019-06-01T05:46:00.000Z</time>
      </trkpt>
      <trkpt lat="45.41372" lon="5.89174">
        <ele>1272.24</ele>
        <time>2019-06-01T05:46:39.000Z</time>
      </trkpt>
      <trkpt lat="45.4139" lon="5.8918">
        <ele>1280.18</ele>
        <time>2019-06-01T05:47:22.000Z</time>
      </trkpt>
      <trkpt lat="45.41407" lon="5.89189">
        <ele>1296.05</ele>
        <time>2019-06-01T05:48:11.000Z</time>
      </trkpt>
      <trkpt lat="45.41424" lon="5.89201">
        <ele>1292.21</ele>
        <time>2019-06-01T05:48:40.000Z</time>
      </trkpt>
      <trkpt lat="45.41442" lon="5.89207">
        <ele>1293.11</ele>
        <time>2019-06-01T05:49:13.000Z</time>
      </trkpt>
      <trkpt lat="45.41459" lon="5.89215">
        <ele>1309.64</ele>
        <time>2019-06-01T05:50:32.000Z</time>
      </trkpt>
      <trkpt lat="45.41475" lon="5.89229">
        <ele>1321.99</ele>
        <time>2019-06-01T05:51:09.000Z</time>
      </trkpt>
      <trkpt lat="45.41491" lon="5.89241">
        <ele>1327.98</ele>
        <time>2019-06-01T05:51:33.000Z</time>
      </trkpt>
      <trkpt lat="45.41507" lon="5.89252">
        <ele>1325.98</ele>
        <time>2019-06-01T05:52:11.000Z</time>
      </trkpt>
      <trkpt lat="45.41524" lon="5.89242">
        <ele>1334.27</ele>
        <time>2019-06-01T05:53:03.000Z</time>
      </trkpt>
      <trkpt lat="45.41542" lon="5.89238">
        <ele>1347.97</ele>
        <time>2019-06-01T05:53:56.000Z</time>
      </trkpt>
      <trkpt lat="45.41559" lon="5.89245">
        <ele>1361.99</ele>
        <time>2019-06-01T05:54:36.000Z</time>
      </trkpt>
      <trkpt lat="45.41574" lon="5.89262">
        <ele>1365.99</ele>
        <time>2019-06-01T05:55:36.000Z</time>
      </trkpt>
      <trkpt lat="45.41591" lon="5.8927">
        <ele>1369.55</ele>
        <time>2019-06-01T05:56:47.000Z</time>
      </trkpt>
      <trkpt lat="45.41607" lon="5.89283">
        <ele>1380.91</ele>
        <time>2019-06-01T05:57:49.000Z</time>
      </trkpt>
      <trkpt lat="45.41626" lon="5.89281">
        <ele>1388.97</ele>
        <time>2019-06-01T05:58:59.000Z</time>
      </trkpt>
      <trkpt lat="45.41645" lon="5.89277">
        <ele>1393.23</ele>
        <time>2019-06-01T05:59:17.000Z</time>
      </trkpt>
      <trkpt lat="45.41663" lon="5.8927">
        <ele>1400.52</ele>
        <time>2019-06-01T06:00:07.000Z</time>
      </trkpt>
      <trkpt lat="45.4168" lon="5.89258">
        <ele>1408.92</ele>
        <time>2019-06-01T06:00:22.000Z</time>
      </trkpt>
      <trkpt lat="45.41695" lon="5.89243">
        <ele>1409.35</ele>
        <time>2019-06-01T06:00:39.000Z</time>
      </trkpt>
      <trkpt lat="45.41711" lon="5.8923">
        <ele>1409.11</ele>
        <time>2019-06-01T06:01:01.000Z</time>
      </trkpt>
      <trkpt lat="45.41724" lon="5.89209">
        <ele>1409.47</ele>
        <time>2019-06-01T06:01:19.000Z</time>
      </trkpt>
      <trkpt lat="45.41738" lon="5.89192">
        <ele>1415.54</ele>
        <time>2019-06-01T06:01:38.000Z</time>
      </trkpt>
      <trkpt lat="45.4174" lon="5.89218">
        <ele>1410.94</ele>
        <time>2019-06-01T06:06:22.000Z</time>
      </trkpt>
      <trkpt lat="45.41743" lon="5.89245">
        <ele>1420.33</ele>
        <time>2019-06-01T06:07:26.000Z</time>
      </trkpt>
      <trkpt lat="45.4175" lon="5.89268">
        <ele>1429.82</ele>
        <time>2019-06-01T06:08:11.000Z</time>
      </trkpt>
      <trkpt lat="45.41757" lon="5.89292">
        <ele>1435.98</ele>
        <time>2019-06-01T06:09:22.000Z</time>
      </trkpt>
      <trkpt lat="45.41775" lon="5.89298">
        <ele>1447.38</ele>
        <time>2019-06-01T06:09:53.000Z</time>
      </trkpt>
      <trkpt lat="45.41769" lon="5.89322">
        <ele>1447.73</ele>
        <time>2019-06-01T06:11:10.000Z</time>
      </trkpt>
      <trkpt lat="45.4177" lon="5.89348">
        <ele>1446.21</ele>
        <time>2019-06-01T06:11:36.000Z</time>
      </trkpt>
      <trkpt lat="45.41769" lon="5.89374">
        <ele>1454.43</ele>
        <time>2019-06-01T06:12:15.000Z</time>
      </trkpt>
      <trkpt lat="45.41755" lon="5.89393">
        <ele>1462.18</ele>
        <time>2019-06-01T06:12:48.000Z</time>
      </trkpt>
      <trkpt lat="45.41754" lon="5.89419">
        <ele>1464.52</ele>
        <time>2019-06-01T06:13:16.000Z</time>
      </trkpt>
      <trkpt lat="45.4175" lon="5.89445">
        <ele>1476.45</ele>
        <time>2019-06-01T06:13:59.000Z</time>
      </trkpt>
      <trkpt lat="45.41751" lon="5.8947">
        <ele>1483.95</ele>
        <time>2019-06-01T06:14:24.000Z</time>
      </trkpt>
      <trkpt lat="45.41744" lon="5.89494">
        <ele>1477.96</ele>
        <time>2019-06-01T06:17:06.000Z</time>
      </trkpt>
      <trkpt lat="45.41749" lon="5.8952">
        <ele>1470.15</ele>
        <time>2019-06-01T06:18:22.000Z</time>
      </trkpt>
      <trkpt lat="45.41747" lon="5.89546">
        <ele>1479.49</ele>
        <time>2019-06-01T06:19:37.000Z</time>
      </trkpt>
      <trkpt lat="45.41747" lon="5.89572">
        <ele>1484.72</ele>
        <time>2019-06-01T06:20:03.000Z</time>
      </trkpt>
      <trkpt lat="45.41743" lon="5.89598">
        <ele>1492.12</ele>
        <time>2019-06-01T06:21:02.000Z</time>
      </trkpt>
      <trkpt lat="45.41732" lon="5.8962">
        <ele>1500.85</ele>
        <time>2019-06-01T06:21:43.000Z</time>
      </trkpt>
      <trkpt lat="45.41722" lon="5.89643">
        <ele>1502.36</ele>
        <time>2019-06-01T06:22:11.000Z</time>
      </trkpt>
      <trkpt lat="45.41706" lon="5.89658">
        <ele>1505.59</ele>
        <time>2019-06-01T06:22:42.000Z</time>
      </trkpt>
      <trkpt lat="45.41695" lon="5.89679">
        <ele>1506.66</ele>
        <time>2019-06-01T06:23:10.000Z</time>
      </trkpt>
      <trkpt lat="45.41685" lon="5.89701">
        <ele>1512.79</ele>
        <time>2019-06-01T06:23:32.000Z</time>
      </trkpt>
      <trkpt lat="45.41667" lon="5.89712">
        <ele>1518.14</ele>
        <time>2019-06-01T06:25:16.000Z</time>
      </trkpt>
      <trkpt lat="45.41656" lon="5.89732">
        <ele>1516.93</ele>
        <time>2019-06-01T06:25:41.000Z</time>
      </trkpt>
      <trkpt lat="45.41649" lon="5.89756">
        <ele>1529.22</ele>
        <time>2019-06-01T06:26:21.000Z</time>
      </trkpt>
      <trkpt lat="45.41663" lon="5.89772">
        <ele>1540.45</ele>
        <time>2019-06-01T06:27:37.000Z</time>
      </trkpt>
      <trkpt lat="45.41654" lon="5.89796">
        <ele>1548.82</ele>
        <time>2019-06-01T06:30:10.000Z</time>
      </trkpt>
      <trkpt lat="45.41652" lon="5.89822">
        <ele>1556.74</ele>
        <time>2019-06-01T06:30:58.000Z</time>
      </trkpt>
      <trkpt lat="45.41671" lon="5.89819">
        <ele>1572.82</ele>
        <time>2019-06-01T06:31:38.000Z</time>
      </trkpt>
      <trkpt lat="45.41669" lon="5.89844">
        <ele>1571.96</ele>
        <time>2019-06-01T06:32:33.000Z</time>
      </trkpt>
      <trkpt lat="45.41687" lon="5.89851">
        <ele>1577.78</ele>
        <time>2019-06-01T06:33:40.000Z</time>
      </trkpt>
      <trkpt lat="45.41695" lon="5.89875">
        <ele>1591.5</ele>
        <time>2019-06-01T06:35:58.000Z</time>
      </trkpt>
      <trkpt lat="45.4171" lon="5.8989">
        <ele>1605.89</ele>
        <time>2019-06-01T06:36:58.000Z</time>
      </trkpt>
      <trkpt lat="45.41704" lon="5.89915">
        <ele>1615.88</ele>
        <time>2019-06-01T06:38:05.000Z</time>
      </trkpt>
      <trkpt lat="45.41691" lon="5.89931">
        <ele>1623.82</ele>
        <time>2019-06-01T06:42:15.000Z</time>
      </trkpt>
      <trkpt lat="45.41674" lon="5.89943">
        <ele>1624.75</ele>
        <time>2019-06-01T06:42:41.000Z</time>
      </trkpt>
      <trkpt lat="45.41657" lon="5.89948">
        <ele>1625.86</ele>
        <time>2019-06-01T06:43:17.000Z</time>
      </trkpt>
      <trkpt lat="45.41638" lon="5.89951">
        <ele>1618.75</ele>
        <time>2019-06-01T06:43:42.000Z</time>
      </trkpt>
      <trkpt lat="45.41623" lon="5.89966">
        <ele>1619.88</ele>
        <time>2019-06-01T06:44:27.000Z</time>
      </trkpt>
      <trkpt lat="45.41609" lon="5.89983">
        <ele>1621.11</ele>
        <time>2019-06-01T06:45:30.000Z</time>
      </trkpt>
      <trkpt lat="45.41624" lon="5.89968">
        <ele>1616.02</ele>
        <time>2019-06-01T06:46:55.000Z</time>
      </trkpt>
      <trkpt lat="45.4164" lon="5.89957">
        <ele>1617.6</ele>
        <time>2019-06-01T06:47:14.000Z</time>
      </trkpt>
      <trkpt lat="45.41659" lon="5.89962">
        <ele>1609.85</ele>
        <time>2019-06-01T06:47:35.000Z</time>
      </trkpt>
      <trkpt lat="45.41676" lon="5.89952">
        <ele>1616.85</ele>
        <time>2019-06-01T06:47:56.000Z</time>
      </trkpt>
      <trkpt lat="45.41693" lon="5.89944">
        <ele>1612.76</ele>
        <time>2019-06-01T06:48:32.000Z</time>
      </trkpt>
      <trkpt lat="45.41711" lon="5.89938">
        <ele>1610.18</ele>
        <time>2019-06-01T06:49:08.000Z</time>
      </trkpt>
      <trkpt lat="45.41725" lon="5.8992">
        <ele>1620.76</ele>
        <time>2019-06-01T06:49:35.000Z</time>
      </trkpt>
      <trkpt lat="45.4174" lon="5.89902">
        <ele>1628.77</ele>
        <time>2019-06-01T06:49:57.000Z</time>
      </trkpt>
      <trkpt lat="45.41754" lon="5.89886">
        <ele>1628.8</ele>
        <time>2019-06-01T06:50:17.000Z</time>
      </trkpt>
      <trkpt lat="45.41765" lon="5.89864">
        <ele>1639.91</ele>
        <time>2019-06-01T06:52:17.000Z</time>
      </trkpt>
      <trkpt lat="45.41774" lon="5.89842">
        <ele>1640.88</ele>
        <time>2019-06-01T06:54:03.000Z</time>
      </trkpt>
      <trkpt lat="45.41792" lon="5.8985">
        <ele>1646.06</ele>
        <time>2019-06-01T06:55:13.000Z</time>
      </trkpt>
      <trkpt lat="45.41811" lon="5.8985">
        <ele>1648.57</ele>
        <time>2019-06-01T06:55:31.000Z</time>
      </trkpt>
      <trkpt lat="45.4183" lon="5.89852">
        <ele>1649.86</ele>
        <time>2019-06-01T06:55:47.000Z</time>
      </trkpt>
      <trkpt lat="45.41847" lon="5.89859">
        <ele>1643.89</ele>
        <time>2019-06-01T06:56:10.000Z</time>
      </trkpt>
      <trkpt lat="45.41865" lon="5.89863">
        <ele>1642.79</ele>
        <time>2019-06-01T06:56:34.000Z</time>
      </trkpt>
      <trkpt lat="45.41884" lon="5.89867">
        <ele>1643.18</ele>
        <time>2019-06-01T06:57:06.000Z</time>
      </trkpt>
      <trkpt lat="45.41902" lon="5.89874">
        <ele>1643.88</ele>
        <time>2019-06-01T06:58:28.000Z</time>
      </trkpt>
      <trkpt lat="45.41919" lon="5.89884">
        <ele>1640.97</ele>
        <time>2019-06-01T06:59:16.000Z</time>
      </trkpt>
      <trkpt lat="45.41937" lon="5.89892">
        <ele>1641.91</ele>
        <time>2019-06-01T07:00:30.000Z</time>
      </trkpt>
      <trkpt lat="45.41944" lon="5.89915">
        <ele>1649.82</ele>
        <time>2019-06-01T07:03:14.000Z</time>
      </trkpt>
      <trkpt lat="45.4196" lon="5.89927">
        <ele>1650.5</ele>
        <time>2019-06-01T07:03:38.000Z</time>
      </trkpt>
      <trkpt lat="45.41963" lon="5.89953">
        <ele>1674.88</ele>
        <time>2019-06-01T07:06:43.000Z</time>
      </trkpt>
      <trkpt lat="45.41955" lon="5.89976">
        <ele>1682.81</ele>
        <time>2019-06-01T07:07:52.000Z</time>
      </trkpt>
      <trkpt lat="45.41953" lon="5.90002">
        <ele>1701.82</ele>
        <time>2019-06-01T07:10:19.000Z</time>
      </trkpt>
      <trkpt lat="45.41937" lon="5.90014">
        <ele>1713.54</ele>
        <time>2019-06-01T07:11:36.000Z</time>
      </trkpt>
      <trkpt lat="45.41952" lon="5.9003">
        <ele>1713.55</ele>
        <time>2019-06-01T07:12:02.000Z</time>
      </trkpt>
      <trkpt lat="45.41962" lon="5.90051">
        <ele>1725.88</ele>
        <time>2019-06-01T07:14:37.000Z</time>
      </trkpt>
      <trkpt lat="45.41946" lon="5.90064">
        <ele>1744.24</ele>
        <time>2019-06-01T07:17:53.000Z</time>
      </trkpt>
      <trkpt lat="45.41944" lon="5.90091">
        <ele>1754.9</ele>
        <time>2019-06-01T07:19:25.000Z</time>
      </trkpt>
      <trkpt lat="45.41959" lon="5.90106">
        <ele>1756.78</ele>
        <time>2019-06-01T07:19:54.000Z</time>
      </trkpt>
      <trkpt lat="45.41959" lon="5.90132">
        <ele>1776.85</ele>
        <time>2019-06-01T07:23:24.000Z</time>
      </trkpt>
      <trkpt lat="45.41964" lon="5.90105">
        <ele>1798.17</ele>
        <time>2019-06-01T07:27:06.000Z</time>
      </trkpt>
      <trkpt lat="45.41966" lon="5.90131">
        <ele>1796.09</ele>
        <time>2019-06-01T07:28:14.000Z</time>
      </trkpt>
      <trkpt lat="45.41962" lon="5.90157">
        <ele>1812.6</ele>
        <time>2019-06-01T07:30:10.000Z</time>
      </trkpt>
      <trkpt lat="45.41963" lon="5.90183">
        <ele>1829.87</ele>
        <time>2019-06-01T07:32:01.000Z</time>
      </trkpt>
      <trkpt lat="45.41982" lon="5.9024">
        <ele>1826.28</ele>
        <time>2019-06-01T07:33:56.000Z</time>
      </trkpt>
      <trkpt lat="45.41958" lon="5.90192">
        <ele>1832.84</ele>
        <time>2019-06-01T07:34:45.000Z</time>
      </trkpt>
      <trkpt lat="45.41966" lon="5.90167">
        <ele>1848.41</ele>
        <time>2019-06-01T07:34:55.000Z</time>
      </trkpt>
      <trkpt lat="45.41959" lon="5.90191">
        <ele>1828.33</ele>
        <time>2019-06-01T07:35:27.000Z</time>
      </trkpt>
      <trkpt lat="45.41977" lon="5.90188">
        <ele>1836.84</ele>
        <time>2019-06-01T07:36:34.000Z</time>
      </trkpt>
      <trkpt lat="45.41993" lon="5.90175">
        <ele>1840.88</ele>
        <time>2019-06-01T07:37:46.000Z</time>
      </trkpt>
      <trkpt lat="45.42008" lon="5.90159">
        <ele>1848.85</ele>
        <time>2019-06-01T07:38:17.000Z</time>
      </trkpt>
      <trkpt lat="45.41997" lon="5.9018">
        <ele>1846.66</ele>
        <time>2019-06-01T07:39:12.000Z</time>
      </trkpt>
      <trkpt lat="45.41986" lon="5.90202">
        <ele>1848.57</ele>
        <time>2019-06-01T07:39:35.000Z</time>
      </trkpt>
      <trkpt lat="45.41972" lon="5.90219">
        <ele>1848.61</ele>
        <time>2019-06-01T07:40:01.000Z</time>
      </trkpt>
      <trkpt lat="45.41986" lon="5.90202">
        <ele>1851.17</ele>
        <time>2019-06-01T07:41:46.000Z</time>
      </trkpt>
      <trkpt lat="45.41982" lon="5.90228">
        <ele>1852.61</ele>
        <time>2019-06-01T07:48:20.000Z</time>
      </trkpt>
      <trkpt lat="45.41964" lon="5.90235">
        <ele>1845.89</ele>
        <time>2019-06-01T07:49:00.000Z</time>
      </trkpt>
      <trkpt lat="45.41951" lon="5.90216">
        <ele>1845.2</ele>
        <time>2019-06-01T07:49:42.000Z</time>
      </trkpt>
      <trkpt lat="45.41935" lon="5.90204">
        <ele>1849.08</ele>
        <time>2019-06-01T07:49:57.000Z</time>
      </trkpt>
      <trkpt lat="45.4192" lon="5.90189">
        <ele>1849.31</ele>
        <time>2019-06-01T07:50:13.000Z</time>
      </trkpt>
      <trkpt lat="45.41903" lon="5.90175">
        <ele>1854.95</ele>
        <time>2019-06-01T07:50:30.000Z</time>
      </trkpt>
      <trkpt lat="45.41885" lon="5.90167">
        <ele>1849.91</ele>
        <time>2019-06-01T07:50:47.000Z</time>
      </trkpt>
      <trkpt lat="45.41869" lon="5.90154">
        <ele>1850.04</ele>
        <time>2019-06-01T07:51:05.000Z</time>
      </trkpt>
      <trkpt lat="45.41851" lon="5.90147">
        <ele>1853.88</ele>
        <time>2019-06-01T07:51:35.000Z</time>
      </trkpt>
      <trkpt lat="45.41843" lon="5.90124">
        <ele>1854.26</ele>
        <time>2019-06-01T07:51:54.000Z</time>
      </trkpt>
      <trkpt lat="45.41828" lon="5.90107">
        <ele>1859.88</ele>
        <time>2019-06-01T07:52:31.000Z</time>
      </trkpt>
      <trkpt lat="45.41811" lon="5.901">
        <ele>1866.88</ele>
        <time>2019-06-01T07:55:27.000Z</time>
      </trkpt>
      <trkpt lat="45.41796" lon="5.90115">
        <ele>1865.81</ele>
        <time>2019-06-01T08:10:27.000Z</time>
      </trkpt>
      <trkpt lat="45.41788" lon="5.90138">
        <ele>1862.18</ele>
        <time>2019-06-01T08:10:51.000Z</time>
      </trkpt>
      <trkpt lat="45.41778" lon="5.90161">
        <ele>1857.52</ele>
        <time>2019-06-01T08:11:08.000Z</time>
      </trkpt>
      <trkpt lat="45.41796" lon="5.90167">
        <ele>1854.95</ele>
        <time>2019-06-01T08:11:56.000Z</time>
      </trkpt>
      <trkpt lat="45.41778" lon="5.90159">
        <ele>1854.6</ele>
        <time>2019-06-01T08:13:49.000Z</time>
      </trkpt>
      <trkpt lat="45.41759" lon="5.90162">
        <ele>1852.89</ele>
        <time>2019-06-01T08:14:03.000Z</time>
      </trkpt>
      <trkpt lat="45.4174" lon="5.9016">
        <ele>1853.58</ele>
        <time>2019-06-01T08:14:17.000Z</time>
      </trkpt>
      <trkpt lat="45.41722" lon="5.90165">
        <ele>1854.81</ele>
        <time>2019-06-01T08:14:43.000Z</time>
      </trkpt>
      <trkpt lat="45.41704" lon="5.9017">
        <ele>1854.27</ele>
        <time>2019-06-01T08:15:05.000Z</time>
      </trkpt>
      <trkpt lat="45.41687" lon="5.90177">
        <ele>1850.97</ele>
        <time>2019-06-01T08:15:36.000Z</time>
      </trkpt>
      <trkpt lat="45.41669" lon="5.90181">
        <ele>1852.21</ele>
        <time>2019-06-01T08:16:11.000Z</time>
      </trkpt>
      <trkpt lat="45.41655" lon="5.90199">
        <ele>1850.06</ele>
        <time>2019-06-01T08:16:42.000Z</time>
      </trkpt>
      <trkpt lat="45.41637" lon="5.90202">
        <ele>1850.17</ele>
        <time>2019-06-01T08:17:14.000Z</time>
      </trkpt>
      <trkpt lat="45.41622" lon="5.90216">
        <ele>1845.08</ele>
        <time>2019-06-01T08:19:26.000Z</time>
      </trkpt>
      <trkpt lat="45.41606" lon="5.90229">
        <ele>1840.28</ele>
        <time>2019-06-01T08:20:43.000Z</time>
      </trkpt>
      <trkpt lat="45.41587" lon="5.90228">
        <ele>1840.3</ele>
        <time>2019-06-01T08:21:05.000Z</time>
      </trkpt>
      <trkpt lat="45.41568" lon="5.90228">
        <ele>1836.79</ele>
        <time>2019-06-01T08:21:29.000Z</time>
      </trkpt>
      <trkpt lat="45.4155" lon="5.90227">
        <ele>1838.79</ele>
        <time>2019-06-01T08:22:08.000Z</time>
      </trkpt>
      <trkpt lat="45.41532" lon="5.9022">
        <ele>1844.58</ele>
        <time>2019-06-01T08:24:05.000Z</time>
      </trkpt>
      <trkpt lat="45.41516" lon="5.90207">
        <ele>1841.92</ele>
        <time>2019-06-01T08:25:13.000Z</time>
      </trkpt>
      <trkpt lat="45.41499" lon="5.90217">
        <ele>1843.85</ele>
        <time>2019-06-01T08:27:36.000Z</time>
      </trkpt>
      <trkpt lat="45.41482" lon="5.9022">
        <ele>1842.88</ele>
        <time>2019-06-01T08:29:20.000Z</time>
      </trkpt>
      <trkpt lat="45.41467" lon="5.90203">
        <ele>1843.97</ele>
        <time>2019-06-01T08:30:51.000Z</time>
      </trkpt>
      <trkpt lat="45.4145" lon="5.90211">
        <ele>1838.27</ele>
        <time>2019-06-01T08:32:01.000Z</time>
      </trkpt>
      <trkpt lat="45.41435" lon="5.90226">
        <ele>1831.86</ele>
        <time>2019-06-01T08:35:17.000Z</time>
      </trkpt>
      <trkpt lat="45.41418" lon="5.90217">
        <ele>1825.84</ele>
        <time>2019-06-01T08:36:20.000Z</time>
      </trkpt>
      <trkpt lat="45.41404" lon="5.90201">
        <ele>1827.49</ele>
        <time>2019-06-01T08:36:38.000Z</time>
      </trkpt>
      <trkpt lat="45.41392" lon="5.9018">
        <ele>1830.97</ele>
        <time>2019-06-01T08:37:27.000Z</time>
      </trkpt>
      <trkpt lat="45.41378" lon="5.90197">
        <ele>1826.15</ele>
        <time>2019-06-01T08:42:40.000Z</time>
      </trkpt>
      <trkpt lat="45.41363" lon="5.90212">
        <ele>1826.51</ele>
        <time>2019-06-01T08:42:58.000Z</time>
      </trkpt>
      <trkpt lat="45.41345" lon="5.9022">
        <ele>1820.85</ele>
        <time>2019-06-01T08:43:21.000Z</time>
      </trkpt>
      <trkpt lat="45.41331" lon="5.90237">
        <ele>1813.81</ele>
        <time>2019-06-01T08:44:03.000Z</time>
      </trkpt>
      <trkpt lat="45.41315" lon="5.90251">
        <ele>1811.79</ele>
        <time>2019-06-01T08:44:28.000Z</time>
      </trkpt>
      <trkpt lat="45.413" lon="5.90265">
        <ele>1808.88</ele>
        <time>2019-06-01T08:45:21.000Z</time>
      </trkpt>
      <trkpt lat="45.41282" lon="5.90267">
        <ele>1801.88</ele>
        <time>2019-06-01T08:46:35.000Z</time>
      </trkpt>
      <trkpt lat="45.41281" lon="5.90292">
        <ele>1795.67</ele>
        <time>2019-06-01T08:48:34.000Z</time>
      </trkpt>
      <trkpt lat="45.41262" lon="5.90295">
        <ele>1793.8</ele>
        <time>2019-06-01T08:49:25.000Z</time>
      </trkpt>
      <trkpt lat="45.41244" lon="5.9029">
        <ele>1790.15</ele>
        <time>2019-06-01T08:50:03.000Z</time>
      </trkpt>
      <trkpt lat="45.41228" lon="5.90301">
        <ele>1786.67</ele>
        <time>2019-06-01T08:51:29.000Z</time>
      </trkpt>
      <trkpt lat="45.41214" lon="5.90285">
        <ele>1782.81</ele>
        <time>2019-06-01T08:54:27.000Z</time>
      </trkpt>
      <trkpt lat="45.41196" lon="5.90282">
        <ele>1779.97</ele>
        <time>2019-06-01T08:59:52.000Z</time>
      </trkpt>
      <trkpt lat="45.41186" lon="5.90261">
        <ele>1786.45</ele>
        <time>2019-06-01T09:00:12.000Z</time>
      </trkpt>
      <trkpt lat="45.41168" lon="5.90256">
        <ele>1781.94</ele>
        <time>2019-06-01T09:04:57.000Z</time>
      </trkpt>
      <trkpt lat="45.4115" lon="5.90255">
        <ele>1778.61</ele>
        <time>2019-06-01T09:05:16.000Z</time>
      </trkpt>
      <trkpt lat="45.41133" lon="5.90268">
        <ele>1776.6</ele>
        <time>2019-06-01T09:05:50.000Z</time>
      </trkpt>
      <trkpt lat="45.41127" lon="5.90292">
        <ele>1768.23</ele>
        <time>2019-06-01T09:06:23.000Z</time>
      </trkpt>
      <trkpt lat="45.41128" lon="5.90318">
        <ele>1759.88</ele>
        <time>2019-06-01T09:07:06.000Z</time>
      </trkpt>
      <trkpt lat="45.41119" lon="5.90342">
        <ele>1752.6</ele>
        <time>2019-06-01T09:10:37.000Z</time>
      </trkpt>
      <trkpt lat="45.41113" lon="5.90366">
        <ele>1748.47</ele>
        <time>2019-06-01T09:11:09.000Z</time>
      </trkpt>
      <trkpt lat="45.41118" lon="5.9039">
        <ele>1746.94</ele>
        <time>2019-06-01T09:11:57.000Z</time>
      </trkpt>
      <trkpt lat="45.41118" lon="5.90416">
        <ele>1741.88</ele>
        <time>2019-06-01T09:13:31.000Z</time>
      </trkpt>
      <trkpt lat="45.41118" lon="5.90442">
        <ele>1734.24</ele>
        <time>2019-06-01T09:14:52.000Z</time>
      </trkpt>
      <trkpt lat="45.41102" lon="5.90455">
        <ele>1722.88</ele>
        <time>2019-06-01T09:17:26.000Z</time>
      </trkpt>
      <trkpt lat="45.41084" lon="5.90444">
        <ele>1718.31</ele>
        <time>2019-06-01T09:17:56.000Z</time>
      </trkpt>
      <trkpt lat="45.41068" lon="5.90457">
        <ele>1721.55</ele>
        <time>2019-06-01T09:18:15.000Z</time>
      </trkpt>
      <trkpt lat="45.4105" lon="5.90462">
        <ele>1721.28</ele>
        <time>2019-06-01T09:18:44.000Z</time>
      </trkpt>
      <trkpt lat="45.41032" lon="5.90465">
        <ele>1718.54</ele>
        <time>2019-06-01T09:19:28.000Z</time>
      </trkpt>
      <trkpt lat="45.41017" lon="5.90479">
        <ele>1721.88</ele>
        <time>2019-06-01T09:20:37.000Z</time>
      </trkpt>
      <trkpt lat="45.41035" lon="5.90477">
        <ele>1720.85</ele>
        <time>2019-06-01T09:22:12.000Z</time>
      </trkpt>
      <trkpt lat="45.41046" lon="5.90456">
        <ele>1721.63</ele>
        <time>2019-06-01T09:22:42.000Z</time>
      </trkpt>
      <trkpt lat="45.41032" lon="5.90439">
        <ele>1718.85</ele>
        <time>2019-06-01T09:23:50.000Z</time>
      </trkpt>
      <trkpt lat="45.41017" lon="5.90425">
        <ele>1722.97</ele>
        <time>2019-06-01T09:24:20.000Z</time>
      </trkpt>
      <trkpt lat="45.41016" lon="5.90399">
        <ele>1725.96</ele>
        <time>2019-06-01T09:26:08.000Z</time>
      </trkpt>
      <trkpt lat="45.41014" lon="5.90372">
        <ele>1728.18</ele>
        <time>2019-06-01T09:26:52.000Z</time>
      </trkpt>
      <trkpt lat="45.40996" lon="5.90369">
        <ele>1728.89</ele>
        <time>2019-06-01T09:27:24.000Z</time>
      </trkpt>
      <trkpt lat="45.40978" lon="5.90363">
        <ele>1725.88</ele>
        <time>2019-06-01T09:28:27.000Z</time>
      </trkpt>
      <trkpt lat="45.4096" lon="5.90358">
        <ele>1721.29</ele>
        <time>2019-06-01T09:28:52.000Z</time>
      </trkpt>
      <trkpt lat="45.40942" lon="5.90356">
        <ele>1726.97</ele>
        <time>2019-06-01T09:29:26.000Z</time>
      </trkpt>
      <trkpt lat="45.40924" lon="5.90362">
        <ele>1727.88</ele>
        <time>2019-06-01T09:30:27.000Z</time>
      </trkpt>
      <trkpt lat="45.40906" lon="5.90357">
        <ele>1726.88</ele>
        <time>2019-06-01T09:31:10.000Z</time>
      </trkpt>
      <trkpt lat="45.4089" lon="5.90369">
        <ele>1728.6</ele>
        <time>2019-06-01T09:31:35.000Z</time>
      </trkpt>
      <trkpt lat="45.40873" lon="5.9036">
        <ele>1727.96</ele>
        <time>2019-06-01T09:32:02.000Z</time>
      </trkpt>
      <trkpt lat="45.40864" lon="5.90383">
        <ele>1721.94</ele>
        <time>2019-06-01T09:32:57.000Z</time>
      </trkpt>
      <trkpt lat="45.40856" lon="5.90406">
        <ele>1717.24</ele>
        <time>2019-06-01T09:33:30.000Z</time>
      </trkpt>
      <trkpt lat="45.40853" lon="5.90432">
        <ele>1710.58</ele>
        <time>2019-06-01T09:35:44.000Z</time>
      </trkpt>
      <trkpt lat="45.40837" lon="5.90446">
        <ele>1711.89</ele>
        <time>2019-06-01T09:35:58.000Z</time>
      </trkpt>
      <trkpt lat="45.40819" lon="5.90451">
        <ele>1711.84</ele>
        <time>2019-06-01T09:36:14.000Z</time>
      </trkpt>
      <trkpt lat="45.40802" lon="5.90464">
        <ele>1710.18</ele>
        <time>2019-06-01T09:36:28.000Z</time>
      </trkpt>
      <trkpt lat="45.40814" lon="5.90484">
        <ele>1710.47</ele>
        <time>2019-06-01T09:38:24.000Z</time>
      </trkpt>
      <trkpt lat="45.40823" lon="5.90508">
        <ele>1709.59</ele>
        <time>2019-06-01T09:38:43.000Z</time>
      </trkpt>
      <trkpt lat="45.40831" lon="5.9053">
        <ele>1707.87</ele>
        <time>2019-06-01T09:39:19.000Z</time>
      </trkpt>
      <trkpt lat="45.40839" lon="5.90555">
        <ele>1704.59</ele>
        <time>2019-06-01T09:40:31.000Z</time>
      </trkpt>
      <trkpt lat="45.40855" lon="5.90568">
        <ele>1700.21</ele>
        <time>2019-06-01T09:40:51.000Z</time>
      </trkpt>
      <trkpt lat="45.40873" lon="5.90573">
        <ele>1701.18</ele>
        <time>2019-06-01T09:41:09.000Z</time>
      </trkpt>
      <trkpt lat="45.40892" lon="5.90576">
        <ele>1697.65</ele>
        <time>2019-06-01T09:41:25.000Z</time>
      </trkpt>
      <trkpt lat="45.40909" lon="5.90589">
        <ele>1697.97</ele>
        <time>2019-06-01T09:41:42.000Z</time>
      </trkpt>
      <trkpt lat="45.40928" lon="5.90589">
        <ele>1696.1</ele>
        <time>2019-06-01T09:41:58.000Z</time>
      </trkpt>
      <trkpt lat="45.40947" lon="5.90593">
        <ele>1697.36</ele>
        <time>2019-06-01T09:42:17.000Z</time>
      </trkpt>
      <trkpt lat="45.40964" lon="5.90601">
        <ele>1695.88</ele>
        <time>2019-06-01T09:43:05.000Z</time>
      </trkpt>
      <trkpt lat="45.4098" lon="5.90613">
        <ele>1695.94</ele>
        <time>2019-06-01T09:45:44.000Z</time>
      </trkpt>
      <trkpt lat="45.40998" lon="5.90625">
        <ele>1697.3</ele>
        <time>2019-06-01T09:45:58.000Z</time>
      </trkpt>
      <trkpt lat="45.41015" lon="5.90632">
        <ele>1692.88</ele>
        <time>2019-06-01T09:47:04.000Z</time>
      </trkpt>
      <trkpt lat="45.41032" lon="5.90643">
        <ele>1687.12</ele>
        <time>2019-06-01T09:47:21.000Z</time>
      </trkpt>
      <trkpt lat="45.41048" lon="5.90658">
        <ele>1689.8</ele>
        <time>2019-06-01T09:47:38.000Z</time>
      </trkpt>
      <trkpt lat="45.41064" lon="5.9067">
        <ele>1682.31</ele>
        <time>2019-06-01T09:47:52.000Z</time>
      </trkpt>
      <trkpt lat="45.41079" lon="5.90684">
        <ele>1684.85</ele>
        <time>2019-06-01T09:48:19.000Z</time>
      </trkpt>
      <trkpt lat="45.41097" lon="5.90681">
        <ele>1678.17</ele>
        <time>2019-06-01T09:48:46.000Z</time>
      </trkpt>
      <trkpt lat="45.41116" lon="5.90683">
        <ele>1681.88</ele>
        <time>2019-06-01T09:49:04.000Z</time>
      </trkpt>
      <trkpt lat="45.41134" lon="5.90685">
        <ele>1677.58</ele>
        <time>2019-06-01T09:49:34.000Z</time>
      </trkpt>
      <trkpt lat="45.41152" lon="5.9069">
        <ele>1677.88</ele>
        <time>2019-06-01T09:50:15.000Z</time>
      </trkpt>
      <trkpt lat="45.4117" lon="5.90686">
        <ele>1678.84</ele>
        <time>2019-06-01T09:51:17.000Z</time>
      </trkpt>
      <trkpt lat="45.41187" lon="5.90696">
        <ele>1671.94</ele>
        <time>2019-06-01T09:51:59.000Z</time>
      </trkpt>
      <trkpt lat="45.41198" lon="5.90717">
        <ele>1672.18</ele>
        <time>2019-06-01T09:52:48.000Z</time>
      </trkpt>
      <trkpt lat="45.41213" lon="5.90732">
        <ele>1670.83</ele>
        <time>2019-06-01T09:53:25.000Z</time>
      </trkpt>
      <trkpt lat="45.4123" lon="5.90744">
        <ele>1666.16</ele>
        <time>2019-06-01T09:53:44.000Z</time>
      </trkpt>
      <trkpt lat="45.41248" lon="5.90749">
        <ele>1665.14</ele>
        <time>2019-06-01T09:54:03.000Z</time>
      </trkpt>
      <trkpt lat="45.41265" lon="5.9076">
        <ele>1669.57</ele>
        <time>2019-06-01T09:56:25.000Z</time>
      </trkpt>
      <trkpt lat="45.41274" lon="5.90782">
        <ele>1669.64</ele>
        <time>2019-06-01T09:56:41.000Z</time>
      </trkpt>
      <trkpt lat="45.41281" lon="5.90807">
        <ele>1660.91</ele>
        <time>2019-06-01T09:57:13.000Z</time>
      </trkpt>
      <trkpt lat="45.4128" lon="5.90833">
        <ele>1658.97</ele>
        <time>2019-06-01T09:57:29.000Z</time>
      </trkpt>
      <trkpt lat="45.41275" lon="5.90858">
        <ele>1663.05</ele>
        <time>2019-06-01T09:57:44.000Z</time>
      </trkpt>
      <trkpt lat="45.41263" lon="5.90879">
        <ele>1657.56</ele>
        <time>2019-06-01T09:58:26.000Z</time>
      </trkpt>
      <trkpt lat="45.41255" lon="5.90902">
        <ele>1657.81</ele>
        <time>2019-06-01T09:59:21.000Z</time>
      </trkpt>
      <trkpt lat="45.41268" lon="5.9092">
        <ele>1659.75</ele>
        <time>2019-06-01T09:59:37.000Z</time>
      </trkpt>
      <trkpt lat="45.41285" lon="5.90931">
        <ele>1651.51</ele>
        <time>2019-06-01T09:59:52.000Z</time>
      </trkpt>
      <trkpt lat="45.41306" lon="5.90941">
        <ele>1648.6</ele>
        <time>2019-06-01T10:00:08.000Z</time>
      </trkpt>
      <trkpt lat="45.41322" lon="5.90955">
        <ele>1645.4</ele>
        <time>2019-06-01T10:00:31.000Z</time>
      </trkpt>
      <trkpt lat="45.41328" lon="5.90981">
        <ele>1646.66</ele>
        <time>2019-06-01T10:00:49.000Z</time>
      </trkpt>
      <trkpt lat="45.41345" lon="5.9099">
        <ele>1643.23</ele>
        <time>2019-06-01T10:01:08.000Z</time>
      </trkpt>
      <trkpt lat="45.4136" lon="5.91009">
        <ele>1641.87</ele>
        <time>2019-06-01T10:01:23.000Z</time>
      </trkpt>
      <trkpt lat="45.41365" lon="5.91033">
        <ele>1642.53</ele>
        <time>2019-06-01T10:01:37.000Z</time>
      </trkpt>
      <trkpt lat="45.41374" lon="5.91056">
        <ele>1638.25</ele>
        <time>2019-06-01T10:01:54.000Z</time>
      </trkpt>
      <trkpt lat="45.4138" lon="5.91082">
        <ele>1640.88</ele>
        <time>2019-06-01T10:02:09.000Z</time>
      </trkpt>
      <trkpt lat="45.41393" lon="5.91101">
        <ele>1637.74</ele>
        <time>2019-06-01T10:02:23.000Z</time>
      </trkpt>
      <trkpt lat="45.41392" lon="5.91127">
        <ele>1637</ele>
        <time>2019-06-01T10:02:42.000Z</time>
      </trkpt>
      <trkpt lat="45.41391" lon="5.91153">
        <ele>1635.06</ele>
        <time>2019-06-01T10:02:59.000Z</time>
      </trkpt>
      <trkpt lat="45.41384" lon="5.91177">
        <ele>1638.86</ele>
        <time>2019-06-01T10:03:15.000Z</time>
      </trkpt>
      <trkpt lat="45.41384" lon="5.91204">
        <ele>1643.36</ele>
        <time>2019-06-01T10:03:30.000Z</time>
      </trkpt>
      <trkpt lat="45.41375" lon="5.91226">
        <ele>1634.15</ele>
        <time>2019-06-01T10:03:47.000Z</time>
      </trkpt>
      <trkpt lat="45.41366" lon="5.91249">
        <ele>1639.52</ele>
        <time>2019-06-01T10:04:02.000Z</time>
      </trkpt>
      <trkpt lat="45.41361" lon="5.91275">
        <ele>1641.21</ele>
        <time>2019-06-01T10:04:19.000Z</time>
      </trkpt>
      <trkpt lat="45.41356" lon="5.913">
        <ele>1642.51</ele>
        <time>2019-06-01T10:04:34.000Z</time>
      </trkpt>
      <trkpt lat="45.41348" lon="5.91324">
        <ele>1647.73</ele>
        <time>2019-06-01T10:04:54.000Z</time>
      </trkpt>
      <trkpt lat="45.41343" lon="5.9135">
        <ele>1650.2</ele>
        <time>2019-06-01T10:05:28.000Z</time>
      </trkpt>
      <trkpt lat="45.4133" lon="5.91367">
        <ele>1657.65</ele>
        <time>2019-06-01T10:05:55.000Z</time>
      </trkpt>
      <trkpt lat="45.41312" lon="5.91377">
        <ele>1657.06</ele>
        <time>2019-06-01T10:07:26.000Z</time>
      </trkpt>
      <trkpt lat="45.41295" lon="5.91389">
        <ele>1655.37</ele>
        <time>2019-06-01T10:07:39.000Z</time>
      </trkpt>
      <trkpt lat="45.41277" lon="5.91384">
        <ele>1657.82</ele>
        <time>2019-06-01T10:07:55.000Z</time>
      </trkpt>
      <trkpt lat="45.41259" lon="5.91382">
        <ele>1656.97</ele>
        <time>2019-06-01T10:08:45.000Z</time>
      </trkpt>
      <trkpt lat="45.41249" lon="5.9136">
        <ele>1654.9</ele>
        <time>2019-06-01T10:10:18.000Z</time>
      </trkpt>
      <trkpt lat="45.41231" lon="5.91357">
        <ele>1655.18</ele>
        <time>2019-06-01T10:10:58.000Z</time>
      </trkpt>
      <trkpt lat="45.41217" lon="5.9134">
        <ele>1658.87</ele>
        <time>2019-06-01T10:11:33.000Z</time>
      </trkpt>
      <trkpt lat="45.41199" lon="5.91345">
        <ele>1657.17</ele>
        <time>2019-06-01T10:11:56.000Z</time>
      </trkpt>
      <trkpt lat="45.41185" lon="5.91362">
        <ele>1651.91</ele>
        <time>2019-06-01T10:12:45.000Z</time>
      </trkpt>
      <trkpt lat="45.41168" lon="5.9135">
        <ele>1652.88</ele>
        <time>2019-06-01T10:13:02.000Z</time>
      </trkpt>
      <trkpt lat="45.41161" lon="5.91324">
        <ele>1650.9</ele>
        <time>2019-06-01T10:13:18.000Z</time>
      </trkpt>
      <trkpt lat="45.41153" lon="5.91301">
        <ele>1652.85</ele>
        <time>2019-06-01T10:13:34.000Z</time>
      </trkpt>
      <trkpt lat="45.41139" lon="5.91284">
        <ele>1651.1</ele>
        <time>2019-06-01T10:13:52.000Z</time>
      </trkpt>
      <trkpt lat="45.41122" lon="5.91277">
        <ele>1650.91</ele>
        <time>2019-06-01T10:14:23.000Z</time>
      </trkpt>
      <trkpt lat="45.41103" lon="5.91278">
        <ele>1651.91</ele>
        <time>2019-06-01T10:14:38.000Z</time>
      </trkpt>
      <trkpt lat="45.41085" lon="5.91279">
        <ele>1655.86</ele>
        <time>2019-06-01T10:14:54.000Z</time>
      </trkpt>
      <trkpt lat="45.4107" lon="5.91262">
        <ele>1654.88</ele>
        <time>2019-06-01T10:15:17.000Z</time>
      </trkpt>
      <trkpt lat="45.41061" lon="5.91241">
        <ele>1653.85</ele>
        <time>2019-06-01T10:15:30.000Z</time>
      </trkpt>
      <trkpt lat="45.41052" lon="5.91217">
        <ele>1649.15</ele>
        <time>2019-06-01T10:15:48.000Z</time>
      </trkpt>
      <trkpt lat="45.41037" lon="5.91198">
        <ele>1653.51</ele>
        <time>2019-06-01T10:16:07.000Z</time>
      </trkpt>
      <trkpt lat="45.41025" lon="5.91178">
        <ele>1652.36</ele>
        <time>2019-06-01T10:16:25.000Z</time>
      </trkpt>
      <trkpt lat="45.4101" lon="5.91164">
        <ele>1641.98</ele>
        <time>2019-06-01T10:17:39.000Z</time>
      </trkpt>
      <trkpt lat="45.41" lon="5.91186">
        <ele>1633.87</ele>
        <time>2019-06-01T10:18:32.000Z</time>
      </trkpt>
      <trkpt lat="45.40988" lon="5.91205">
        <ele>1627.06</ele>
        <time>2019-06-01T10:19:12.000Z</time>
      </trkpt>
      <trkpt lat="45.40971" lon="5.91216">
        <ele>1618.4</ele>
        <time>2019-06-01T10:20:31.000Z</time>
      </trkpt>
      <trkpt lat="45.40965" lon="5.91241">
        <ele>1613.98</ele>
        <time>2019-06-01T10:21:24.000Z</time>
      </trkpt>
      <trkpt lat="45.4095" lon="5.91225">
        <ele>1592</ele>
        <time>2019-06-01T10:22:52.000Z</time>
      </trkpt>
      <trkpt lat="45.40937" lon="5.91208">
        <ele>1587.97</ele>
        <time>2019-06-01T10:23:28.000Z</time>
      </trkpt>
      <trkpt lat="45.40919" lon="5.91201">
        <ele>1581.96</ele>
        <time>2019-06-01T10:23:44.000Z</time>
      </trkpt>
      <trkpt lat="45.40907" lon="5.91182">
        <ele>1584.37</ele>
        <time>2019-06-01T10:24:09.000Z</time>
      </trkpt>
      <trkpt lat="45.4089" lon="5.91168">
        <ele>1584.12</ele>
        <time>2019-06-01T10:24:41.000Z</time>
      </trkpt>
      <trkpt lat="45.40871" lon="5.9117">
        <ele>1572.67</ele>
        <time>2019-06-01T10:25:34.000Z</time>
      </trkpt>
      <trkpt lat="45.40856" lon="5.91156">
        <ele>1557.09</ele>
        <time>2019-06-01T10:26:32.000Z</time>
      </trkpt>
      <trkpt lat="45.40837" lon="5.91158">
        <ele>1556.18</ele>
        <time>2019-06-01T10:26:50.000Z</time>
      </trkpt>
      <trkpt lat="45.4083" lon="5.91183">
        <ele>1557.85</ele>
        <time>2019-06-01T10:27:02.000Z</time>
      </trkpt>
      <trkpt lat="45.40833" lon="5.91209">
        <ele>1543.91</ele>
        <time>2019-06-01T10:27:23.000Z</time>
      </trkpt>
      <trkpt lat="45.4084" lon="5.91232">
        <ele>1538.49</ele>
        <time>2019-06-01T10:27:39.000Z</time>
      </trkpt>
      <trkpt lat="45.40843" lon="5.91259">
        <ele>1528.58</ele>
        <time>2019-06-01T10:28:17.000Z</time>
      </trkpt>
      <trkpt lat="45.40839" lon="5.91284">
        <ele>1527.22</ele>
        <time>2019-06-01T10:28:39.000Z</time>
      </trkpt>
      <trkpt lat="45.40832" lon="5.91308">
        <ele>1525.22</ele>
        <time>2019-06-01T10:28:56.000Z</time>
      </trkpt>
      <trkpt lat="45.4084" lon="5.91332">
        <ele>1519.91</ele>
        <time>2019-06-01T10:29:23.000Z</time>
      </trkpt>
      <trkpt lat="45.40838" lon="5.91358">
        <ele>1518.37</ele>
        <time>2019-06-01T10:29:36.000Z</time>
      </trkpt>
      <trkpt lat="45.40838" lon="5.91385">
        <ele>1514.69</ele>
        <time>2019-06-01T10:29:50.000Z</time>
      </trkpt>
      <trkpt lat="45.40833" lon="5.9141">
        <ele>1522.99</ele>
        <time>2019-06-01T10:30:05.000Z</time>
      </trkpt>
      <trkpt lat="45.40815" lon="5.9141">
        <ele>1515.19</ele>
        <time>2019-06-01T10:31:06.000Z</time>
      </trkpt>
      <trkpt lat="45.40807" lon="5.91387">
        <ele>1502.82</ele>
        <time>2019-06-01T10:31:43.000Z</time>
      </trkpt>
      <trkpt lat="45.40794" lon="5.91369">
        <ele>1504.85</ele>
        <time>2019-06-01T10:32:24.000Z</time>
      </trkpt>
      <trkpt lat="45.40781" lon="5.9135">
        <ele>1505.7</ele>
        <time>2019-06-01T10:32:52.000Z</time>
      </trkpt>
      <trkpt lat="45.40767" lon="5.91335">
        <ele>1497.78</ele>
        <time>2019-06-01T10:33:26.000Z</time>
      </trkpt>
      <trkpt lat="45.40752" lon="5.91319">
        <ele>1495.69</ele>
        <time>2019-06-01T10:33:55.000Z</time>
      </trkpt>
      <trkpt lat="45.40747" lon="5.91294">
        <ele>1495.11</ele>
        <time>2019-06-01T10:34:37.000Z</time>
      </trkpt>
      <trkpt lat="45.40736" lon="5.91272">
        <ele>1483.7</ele>
        <time>2019-06-01T10:35:12.000Z</time>
      </trkpt>
      <trkpt lat="45.40724" lon="5.91253">
        <ele>1486.84</ele>
        <time>2019-06-01T10:35:50.000Z</time>
      </trkpt>
      <trkpt lat="45.40715" lon="5.91231">
        <ele>1484.84</ele>
        <time>2019-06-01T10:36:23.000Z</time>
      </trkpt>
      <trkpt lat="45.40701" lon="5.91214">
        <ele>1480.7</ele>
        <time>2019-06-01T10:36:43.000Z</time>
      </trkpt>
      <trkpt lat="45.40691" lon="5.91191">
        <ele>1476.04</ele>
        <time>2019-06-01T10:37:14.000Z</time>
      </trkpt>
      <trkpt lat="45.40681" lon="5.9117">
        <ele>1470.27</ele>
        <time>2019-06-01T10:37:37.000Z</time>
      </trkpt>
      <trkpt lat="45.4067" lon="5.9115">
        <ele>1470.12</ele>
        <time>2019-06-01T10:37:56.000Z</time>
      </trkpt>
      <trkpt lat="45.40661" lon="5.91127">
        <ele>1475.88</ele>
        <time>2019-06-01T10:38:19.000Z</time>
      </trkpt>
      <trkpt lat="45.40654" lon="5.91102">
        <ele>1474.91</ele>
        <time>2019-06-01T10:38:47.000Z</time>
      </trkpt>
      <trkpt lat="45.40647" lon="5.91077">
        <ele>1471.82</ele>
        <time>2019-06-01T10:39:14.000Z</time>
      </trkpt>
      <trkpt lat="45.40629" lon="5.91075">
        <ele>1462.04</ele>
        <time>2019-06-01T10:39:58.000Z</time>
      </trkpt>
      <trkpt lat="45.40615" lon="5.91057">
        <ele>1458.1</ele>
        <time>2019-06-01T10:40:13.000Z</time>
      </trkpt>
      <trkpt lat="45.40601" lon="5.91039">
        <ele>1454.65</ele>
        <time>2019-06-01T10:40:29.000Z</time>
      </trkpt>
      <trkpt lat="45.40593" lon="5.91014">
        <ele>1449.86</ele>
        <time>2019-06-01T10:40:59.000Z</time>
      </trkpt>
      <trkpt lat="45.40577" lon="5.91">
        <ele>1455.91</ele>
        <time>2019-06-01T10:41:13.000Z</time>
      </trkpt>
      <trkpt lat="45.4056" lon="5.90986">
        <ele>1450.8</ele>
        <time>2019-06-01T10:41:26.000Z</time>
      </trkpt>
      <trkpt lat="45.40545" lon="5.90967">
        <ele>1442.97</ele>
        <time>2019-06-01T10:41:41.000Z</time>
      </trkpt>
      <trkpt lat="45.40532" lon="5.9095">
        <ele>1443.67</ele>
        <time>2019-06-01T10:41:53.000Z</time>
      </trkpt>
      <trkpt lat="45.40517" lon="5.90934">
        <ele>1443.64</ele>
        <time>2019-06-01T10:42:05.000Z</time>
      </trkpt>
      <trkpt lat="45.40505" lon="5.90914">
        <ele>1445.83</ele>
        <time>2019-06-01T10:42:17.000Z</time>
      </trkpt>
      <trkpt lat="45.40497" lon="5.9089">
        <ele>1439.22</ele>
        <time>2019-06-01T10:42:31.000Z</time>
      </trkpt>
      <trkpt lat="45.40496" lon="5.90863">
        <ele>1442.54</ele>
        <time>2019-06-01T10:42:44.000Z</time>
      </trkpt>
      <trkpt lat="45.40481" lon="5.90849">
        <ele>1442.89</ele>
        <time>2019-06-01T10:43:51.000Z</time>
      </trkpt>
      <trkpt lat="45.4047" lon="5.90827">
        <ele>1444.26</ele>
        <time>2019-06-01T10:44:08.000Z</time>
      </trkpt>
      <trkpt lat="45.40458" lon="5.90807">
        <ele>1442.86</ele>
        <time>2019-06-01T10:44:30.000Z</time>
      </trkpt>
      <trkpt lat="45.40448" lon="5.90786">
        <ele>1441.18</ele>
        <time>2019-06-01T10:44:57.000Z</time>
      </trkpt>
      <trkpt lat="45.4044" lon="5.90761">
        <ele>1434.16</ele>
        <time>2019-06-01T10:45:29.000Z</time>
      </trkpt>
      <trkpt lat="45.4043" lon="5.9074">
        <ele>1432.95</ele>
        <time>2019-06-01T10:46:06.000Z</time>
      </trkpt>
      <trkpt lat="45.40422" lon="5.90717">
        <ele>1427.88</ele>
        <time>2019-06-01T10:46:27.000Z</time>
      </trkpt>
      <trkpt lat="45.40416" lon="5.90692">
        <ele>1429.91</ele>
        <time>2019-06-01T10:47:11.000Z</time>
      </trkpt>
      <trkpt lat="45.4041" lon="5.90666">
        <ele>1420.38</ele>
        <time>2019-06-01T10:48:13.000Z</time>
      </trkpt>
      <trkpt lat="45.40397" lon="5.90647">
        <ele>1416.55</ele>
        <time>2019-06-01T10:48:37.000Z</time>
      </trkpt>
      <trkpt lat="45.40392" lon="5.90621">
        <ele>1404.27</ele>
        <time>2019-06-01T10:49:22.000Z</time>
      </trkpt>
      <trkpt lat="45.40391" lon="5.90595">
        <ele>1393.02</ele>
        <time>2019-06-01T10:50:15.000Z</time>
      </trkpt>
      <trkpt lat="45.40375" lon="5.90584">
        <ele>1385.18</ele>
        <time>2019-06-01T10:50:54.000Z</time>
      </trkpt>
      <trkpt lat="45.4036" lon="5.90569">
        <ele>1383.57</ele>
        <time>2019-06-01T10:51:19.000Z</time>
      </trkpt>
      <trkpt lat="45.40357" lon="5.90544">
        <ele>1368.61</ele>
        <time>2019-06-01T10:52:29.000Z</time>
      </trkpt>
      <trkpt lat="45.4034" lon="5.90533">
        <ele>1357.96</ele>
        <time>2019-06-01T10:53:23.000Z</time>
      </trkpt>
      <trkpt lat="45.40326" lon="5.90515">
        <ele>1357.27</ele>
        <time>2019-06-01T10:53:50.000Z</time>
      </trkpt>
      <trkpt lat="45.40346" lon="5.90518">
        <ele>1348.22</ele>
        <time>2019-06-01T10:54:17.000Z</time>
      </trkpt>
      <trkpt lat="45.40364" lon="5.90516">
        <ele>1344.88</ele>
        <time>2019-06-01T10:55:05.000Z</time>
      </trkpt>
      <trkpt lat="45.40364" lon="5.9049">
        <ele>1334.87</ele>
        <time>2019-06-01T10:56:16.000Z</time>
      </trkpt>
      <trkpt lat="45.40373" lon="5.90466">
        <ele>1329.42</ele>
        <time>2019-06-01T10:57:25.000Z</time>
      </trkpt>
      <trkpt lat="45.40357" lon="5.90455">
        <ele>1325.18</ele>
        <time>2019-06-01T10:57:44.000Z</time>
      </trkpt>
      <trkpt lat="45.40376" lon="5.90457">
        <ele>1312.97</ele>
        <time>2019-06-01T11:00:41.000Z</time>
      </trkpt>
      <trkpt lat="45.40372" lon="5.90431">
        <ele>1311.15</ele>
        <time>2019-06-01T11:01:35.000Z</time>
      </trkpt>
      <trkpt lat="45.40361" lon="5.9041">
        <ele>1302.7</ele>
        <time>2019-06-01T11:01:47.000Z</time>
      </trkpt>
      <trkpt lat="45.40348" lon="5.90392">
        <ele>1296.12</ele>
        <time>2019-06-01T11:02:33.000Z</time>
      </trkpt>
      <trkpt lat="45.40361" lon="5.90371">
        <ele>1283.84</ele>
        <time>2019-06-01T11:03:10.000Z</time>
      </trkpt>
      <trkpt lat="45.4037" lon="5.90347">
        <ele>1276.88</ele>
        <time>2019-06-01T11:03:28.000Z</time>
      </trkpt>
      <trkpt lat="45.4036" lon="5.90325">
        <ele>1268.74</ele>
        <time>2019-06-01T11:03:57.000Z</time>
      </trkpt>
      <trkpt lat="45.40354" lon="5.90301">
        <ele>1266.83</ele>
        <time>2019-06-01T11:04:25.000Z</time>
      </trkpt>
      <trkpt lat="45.4035" lon="5.90276">
        <ele>1250.17</ele>
        <time>2019-06-01T11:05:06.000Z</time>
      </trkpt>
      <trkpt lat="45.40341" lon="5.90253">
        <ele>1234.88</ele>
        <time>2019-06-01T11:07:04.000Z</time>
      </trkpt>
      <trkpt lat="45.40325" lon="5.90237">
        <ele>1229.59</ele>
        <time>2019-06-01T11:07:24.000Z</time>
      </trkpt>
      <trkpt lat="45.40322" lon="5.90212">
        <ele>1223.69</ele>
        <time>2019-06-01T11:07:55.000Z</time>
      </trkpt>
      <trkpt lat="45.40322" lon="5.90185">
        <ele>1211.85</ele>
        <time>2019-06-01T11:08:33.000Z</time>
      </trkpt>
      <trkpt lat="45.40331" lon="5.90161">
        <ele>1208.64</ele>
        <time>2019-06-01T11:08:50.000Z</time>
      </trkpt>
      <trkpt lat="45.40348" lon="5.90153">
        <ele>1204.11</ele>
        <time>2019-06-01T11:09:12.000Z</time>
      </trkpt>
      <trkpt lat="45.40341" lon="5.90128">
        <ele>1206.86</ele>
        <time>2019-06-01T11:10:03.000Z</time>
      </trkpt>
      <trkpt lat="45.40334" lon="5.90104">
        <ele>1199.52</ele>
        <time>2019-06-01T11:10:48.000Z</time>
      </trkpt>
      <trkpt lat="45.40341" lon="5.9008">
        <ele>1194.66</ele>
        <time>2019-06-01T11:11:08.000Z</time>
      </trkpt>
      <trkpt lat="45.40346" lon="5.90055">
        <ele>1185.91</ele>
        <time>2019-06-01T11:11:45.000Z</time>
      </trkpt>
      <trkpt lat="45.40356" lon="5.90032">
        <ele>1175.86</ele>
        <time>2019-06-01T11:12:17.000Z</time>
      </trkpt>
      <trkpt lat="45.40352" lon="5.90005">
        <ele>1174.9</ele>
        <time>2019-06-01T11:12:41.000Z</time>
      </trkpt>
      <trkpt lat="45.4035" lon="5.89978">
        <ele>1172.09</ele>
        <time>2019-06-01T11:13:10.000Z</time>
      </trkpt>
      <trkpt lat="45.40365" lon="5.89963">
        <ele>1161.54</ele>
        <time>2019-06-01T11:13:38.000Z</time>
      </trkpt>
      <trkpt lat="45.40369" lon="5.89938">
        <ele>1158.8</ele>
        <time>2019-06-01T11:13:55.000Z</time>
      </trkpt>
      <trkpt lat="45.40383" lon="5.8992">
        <ele>1159.54</ele>
        <time>2019-06-01T11:14:14.000Z</time>
      </trkpt>
      <trkpt lat="45.4038" lon="5.89895">
        <ele>1154.71</ele>
        <time>2019-06-01T11:14:35.000Z</time>
      </trkpt>
      <trkpt lat="45.4039" lon="5.89872">
        <ele>1151.06</ele>
        <time>2019-06-01T11:14:54.000Z</time>
      </trkpt>
      <trkpt lat="45.40394" lon="5.89845">
        <ele>1149.67</ele>
        <time>2019-06-01T11:15:11.000Z</time>
      </trkpt>
      <trkpt lat="45.40397" lon="5.89819">
        <ele>1142.5</ele>
        <time>2019-06-01T11:15:23.000Z</time>
      </trkpt>
      <trkpt lat="45.40405" lon="5.89795">
        <ele>1134.81</ele>
        <time>2019-06-01T11:15:34.000Z</time>
      </trkpt>
      <trkpt lat="45.40411" lon="5.89771">
        <ele>1134.39</ele>
        <time>2019-06-01T11:15:49.000Z</time>
      </trkpt>
      <trkpt lat="45.40421" lon="5.89748">
        <ele>1128.15</ele>
        <time>2019-06-01T11:16:00.000Z</time>
      </trkpt>
      <trkpt lat="45.40429" lon="5.89725">
        <ele>1130.95</ele>
        <time>2019-06-01T11:16:15.000Z</time>
      </trkpt>
      <trkpt lat="45.40437" lon="5.89701">
        <ele>1125.88</ele>
        <time>2019-06-01T11:16:28.000Z</time>
      </trkpt>
      <trkpt lat="45.40438" lon="5.89674">
        <ele>1127.53</ele>
        <time>2019-06-01T11:16:42.000Z</time>
      </trkpt>
      <trkpt lat="45.40444" lon="5.8965">
        <ele>1125.02</ele>
        <time>2019-06-01T11:16:55.000Z</time>
      </trkpt>
      <trkpt lat="45.40446" lon="5.89623">
        <ele>1123.4</ele>
        <time>2019-06-01T11:17:12.000Z</time>
      </trkpt>
      <trkpt lat="45.40459" lon="5.89604">
        <ele>1126.87</ele>
        <time>2019-06-01T11:17:29.000Z</time>
      </trkpt>
      <trkpt lat="45.40476" lon="5.89592">
        <ele>1129.97</ele>
        <time>2019-06-01T11:17:40.000Z</time>
      </trkpt>
      <trkpt lat="45.40494" lon="5.89582">
        <ele>1134.7</ele>
        <time>2019-06-01T11:17:55.000Z</time>
      </trkpt>
      <trkpt lat="45.4051" lon="5.89571">
        <ele>1136.41</ele>
        <time>2019-06-01T11:18:08.000Z</time>
      </trkpt>
      <trkpt lat="45.40522" lon="5.8955">
        <ele>1130.07</ele>
        <time>2019-06-01T11:18:24.000Z</time>
      </trkpt>
      <trkpt lat="45.40533" lon="5.89528">
        <ele>1127.31</ele>
        <time>2019-06-01T11:18:41.000Z</time>
      </trkpt>
      <trkpt lat="45.40552" lon="5.8953">
        <ele>1130.13</ele>
        <time>2019-06-01T11:18:55.000Z</time>
      </trkpt>
      <trkpt lat="45.4057" lon="5.89522">
        <ele>1122.9</ele>
        <time>2019-06-01T11:19:11.000Z</time>
      </trkpt>
      <trkpt lat="45.40585" lon="5.89507">
        <ele>1123.73</ele>
        <time>2019-06-01T11:19:24.000Z</time>
      </trkpt>
      <trkpt lat="45.40593" lon="5.89532">
        <ele>1126.3</ele>
        <time>2019-06-01T11:19:40.000Z</time>
      </trkpt>
      <trkpt lat="45.40612" lon="5.89536">
        <ele>1126.02</ele>
        <time>2019-06-01T11:19:49.000Z</time>
      </trkpt>
      <trkpt lat="45.4063" lon="5.89532">
        <ele>1126.82</ele>
        <time>2019-06-01T11:19:59.000Z</time>
      </trkpt>
      <trkpt lat="45.40647" lon="5.89542">
        <ele>1130.81</ele>
        <time>2019-06-01T11:20:10.000Z</time>
      </trkpt>
      <trkpt lat="45.40664" lon="5.89555">
        <ele>1130.39</ele>
        <time>2019-06-01T11:20:23.000Z</time>
      </trkpt>
      <trkpt lat="45.40682" lon="5.89554">
        <ele>1132.12</ele>
        <time>2019-06-01T11:20:34.000Z</time>
      </trkpt>
      <trkpt lat="45.40701" lon="5.89554">
        <ele>1128.91</ele>
        <time>2019-06-01T11:20:49.000Z</time>
      </trkpt>
      <trkpt lat="45.4072" lon="5.89552">
        <ele>1127.18</ele>
        <time>2019-06-01T11:21:05.000Z</time>
      </trkpt>
      <trkpt lat="45.40737" lon="5.89557">
        <ele>1122.73</ele>
        <time>2019-06-01T11:21:26.000Z</time>
      </trkpt>
      <trkpt lat="45.40755" lon="5.89553">
        <ele>1118.45</ele>
        <time>2019-06-01T11:21:37.000Z</time>
      </trkpt>
      <trkpt lat="45.40774" lon="5.89548">
        <ele>1116.78</ele>
        <time>2019-06-01T11:21:48.000Z</time>
      </trkpt>
      <trkpt lat="45.40792" lon="5.89538">
        <ele>1115.39</ele>
        <time>2019-06-01T11:22:06.000Z</time>
      </trkpt>
      <trkpt lat="45.40809" lon="5.89528">
        <ele>1113.85</ele>
        <time>2019-06-01T11:22:18.000Z</time>
      </trkpt>
      <trkpt lat="45.40825" lon="5.89514">
        <ele>1112.99</ele>
        <time>2019-06-01T11:22:31.000Z</time>
      </trkpt>
      <trkpt lat="45.40839" lon="5.89497">
        <ele>1107.26</ele>
        <time>2019-06-01T11:22:43.000Z</time>
      </trkpt>
      <trkpt lat="45.4085" lon="5.89474">
        <ele>1112.9</ele>
        <time>2019-06-01T11:22:59.000Z</time>
      </trkpt>
      <trkpt lat="45.40857" lon="5.89448">
        <ele>1106</ele>
        <time>2019-06-01T11:23:12.000Z</time>
      </trkpt>
      <trkpt lat="45.40857" lon="5.89422">
        <ele>1103.29</ele>
        <time>2019-06-01T11:23:24.000Z</time>
      </trkpt>
      <trkpt lat="45.40856" lon="5.89394">
        <ele>1103.59</ele>
        <time>2019-06-01T11:23:37.000Z</time>
      </trkpt>
      <trkpt lat="45.40864" lon="5.8937">
        <ele>1095.15</ele>
        <time>2019-06-01T11:23:48.000Z</time>
      </trkpt>
      <trkpt lat="45.40861" lon="5.89344">
        <ele>1094.23</ele>
        <time>2019-06-01T11:24:05.000Z</time>
      </trkpt>
      <trkpt lat="45.40865" lon="5.89318">
        <ele>1093.89</ele>
        <time>2019-06-01T11:24:28.000Z</time>
      </trkpt>
      <trkpt lat="45.40879" lon="5.893">
        <ele>1094.11</ele>
        <time>2019-06-01T11:24:43.000Z</time>
      </trkpt>
      <trkpt lat="45.40892" lon="5.8928">
        <ele>1102.64</ele>
        <time>2019-06-01T11:24:54.000Z</time>
      </trkpt>
      <trkpt lat="45.40908" lon="5.89268">
        <ele>1108.33</ele>
        <time>2019-06-01T11:25:08.000Z</time>
      </trkpt>
      <trkpt lat="45.40926" lon="5.89259">
        <ele>1112.48</ele>
        <time>2019-06-01T11:25:26.000Z</time>
      </trkpt>
      <trkpt lat="45.40942" lon="5.89244">
        <ele>1115.15</ele>
        <time>2019-06-01T11:25:38.000Z</time>
      </trkpt>
      <trkpt lat="45.40957" lon="5.89229">
        <ele>1107.51</ele>
        <time>2019-06-01T11:25:55.000Z</time>
      </trkpt>
      <trkpt lat="45.4097" lon="5.89209">
        <ele>1113.41</ele>
        <time>2019-06-01T11:26:08.000Z</time>
      </trkpt>
      <trkpt lat="45.40984" lon="5.89191">
        <ele>1118.23</ele>
        <time>2019-06-01T11:26:21.000Z</time>
      </trkpt>
      <trkpt lat="45.41001" lon="5.89181">
        <ele>1117.38</ele>
        <time>2019-06-01T11:26:34.000Z</time>
      </trkpt>
      <trkpt lat="45.41018" lon="5.89171">
        <ele>1117.23</ele>
        <time>2019-06-01T11:26:45.000Z</time>
      </trkpt>
      <trkpt lat="45.41032" lon="5.89155">
        <ele>1116.65</ele>
        <time>2019-06-01T11:26:58.000Z</time>
      </trkpt>
      <trkpt lat="45.4104" lon="5.89132">
        <ele>1114.08</ele>
        <time>2019-06-01T11:27:16.000Z</time>
      </trkpt>
      <trkpt lat="45.41039" lon="5.89105">
        <ele>1118.05</ele>
        <time>2019-06-01T11:27:28.000Z</time>
      </trkpt>
      <trkpt lat="45.41038" lon="5.89079">
        <ele>1117.97</ele>
        <time>2019-06-01T11:27:39.000Z</time>
      </trkpt>
      <trkpt lat="45.41036" lon="5.89052">
        <ele>1118.82</ele>
        <time>2019-06-01T11:27:55.000Z</time>
      </trkpt>
      <trkpt lat="45.41033" lon="5.89026">
        <ele>1117.93</ele>
        <time>2019-06-01T11:28:12.000Z</time>
      </trkpt>
      <trkpt lat="45.4104" lon="5.89002">
        <ele>1112.41</ele>
        <time>2019-06-01T11:28:23.000Z</time>
      </trkpt>
      <trkpt lat="45.41043" lon="5.88975">
        <ele>1114.27</ele>
        <time>2019-06-01T11:28:37.000Z</time>
      </trkpt>
      <trkpt lat="45.41051" lon="5.88951">
        <ele>1112.99</ele>
        <time>2019-06-01T11:28:51.000Z</time>
      </trkpt>
      <trkpt lat="45.41058" lon="5.88927">
        <ele>1104.74</ele>
        <time>2019-06-01T11:29:11.000Z</time>
      </trkpt>
      <trkpt lat="45.41072" lon="5.88911">
        <ele>1101.75</ele>
        <time>2019-06-01T11:29:32.000Z</time>
      </trkpt>
      <trkpt lat="45.41083" lon="5.88889">
        <ele>1097.15</ele>
        <time>2019-06-01T11:29:44.000Z</time>
      </trkpt>
      <trkpt lat="45.41097" lon="5.88872">
        <ele>1094.91</ele>
        <time>2019-06-01T11:30:02.000Z</time>
      </trkpt>
      <trkpt lat="45.41109" lon="5.8885">
        <ele>1089.11</ele>
        <time>2019-06-01T11:30:26.000Z</time>
      </trkpt>
      <trkpt lat="45.41126" lon="5.8884">
        <ele>1086.94</ele>
        <time>2019-06-01T11:30:50.000Z</time>
      </trkpt>
      <trkpt lat="45.41142" lon="5.88828">
        <ele>1077.36</ele>
        <time>2019-06-01T11:31:08.000Z</time>
      </trkpt>
      <trkpt lat="45.41155" lon="5.88808">
        <ele>1071.3</ele>
        <time>2019-06-01T11:31:30.000Z</time>
      </trkpt>
      <trkpt lat="45.41163" lon="5.88784">
        <ele>1065.34</ele>
        <time>2019-06-01T11:31:48.000Z</time>
      </trkpt>
      <trkpt lat="45.41176" lon="5.88765">
        <ele>1058.96</ele>
        <time>2019-06-01T11:32:07.000Z</time>
      </trkpt>
      <trkpt lat="45.41181" lon="5.8874">
        <ele>1061.28</ele>
        <time>2019-06-01T11:32:30.000Z</time>
      </trkpt>
      <trkpt lat="45.41196" lon="5.88725">
        <ele>1058.62</ele>
        <time>2019-06-01T11:32:45.000Z</time>
      </trkpt>
      <trkpt lat="45.4121" lon="5.88705">
        <ele>1053.18</ele>
        <time>2019-06-01T11:32:58.000Z</time>
      </trkpt>
      <trkpt lat="45.41224" lon="5.88689">
        <ele>1048.09</ele>
        <time>2019-06-01T11:33:18.000Z</time>
      </trkpt>
    </trkseg>
  </trk>
</gpx>